sensor_id;sensor_type;location;lat;lon;timestamp;pressure;altitude;pressure_sealevel;temperature;humidity
11345;BME280;5727;42.600;23.028;2024-03-02T00:00:36;93077.50;;;8.46;100.00
11345;BME280;5727;42.600;23.028;2024-03-02T00:03:04;93090.03;;;8.40;100.00
11345;BME280;5727;42.600;23.028;2024-03-02T00:05:31;93087.84;;;8.54;100.00
11345;BME280;5727;42.600;23.028;2024-03-02T00:07:58;93092.53;;;8.49;100.00
11345;BME280;5727;42.600;23.028;2024-03-02T00:10:29;93086.78;;;8.31;100.00
11345;BME280;5727;42.600;23.028;2024-03-02T00:13:00;93093.59;;;8.23;100.00
11345;BME280;5727;42.600;23.028;2024-03-02T00:15:40;93086.00;;;8.30;100.00
11345;BME280;5727;42.600;23.028;2024-03-02T00:18:10;93093.47;;;8.20;100.00
11345;BME280;5727;42.600;23.028;2024-03-02T00:20:38;93087.38;;;8.16;100.00
11345;BME280;5727;42.600;23.028;2024-03-02T00:23:06;93085.53;;;8.04;100.00
11345;BME280;5727;42.600;23.028;2024-03-02T00:25:40;93092.03;;;7.98;100.00
11345;BME280;5727;42.600;23.028;2024-03-02T00:28:17;93089.63;;;7.93;100.00
11345;BME280;5727;42.600;23.028;2024-03-02T00:30:56;93087.88;;;7.97;100.00
11345;BME280;5727;42.600;23.028;2024-03-02T00:33:25;93084.41;;;7.93;100.00
11345;BME280;5727;42.600;23.028;2024-03-02T00:35:53;93074.41;;;7.95;100.00
11345;BME280;5727;42.600;23.028;2024-03-02T00:38:20;93074.41;;;8.07;100.00
11345;BME280;5727;42.600;23.028;2024-03-02T00:40:49;93075.09;;;8.04;100.00
11345;BME280;5727;42.600;23.028;2024-03-02T00:43:41;93067.22;;;7.92;100.00
11345;BME280;5727;42.600;23.028;2024-03-02T00:46:08;93069.75;;;8.01;100.00
11345;BME280;5727;42.600;23.028;2024-03-02T00:48:35;93074.75;;;8.06;100.00
11345;BME280;5727;42.600;23.028;2024-03-02T00:51:03;93078.44;;;8.17;100.00
11345;BME280;5727;42.600;23.028;2024-03-02T00:53:31;93079.34;;;8.21;100.00
11345;BME280;5727;42.600;23.028;2024-03-02T00:56:01;93078.44;;;8.05;100.00
11345;BME280;5727;42.600;23.028;2024-03-02T00:58:28;93078.44;;;7.93;100.00
11345;BME280;5727;42.600;23.028;2024-03-02T01:00:55;93069.00;;;8.00;100.00
11345;BME280;5727;42.600;23.028;2024-03-02T01:03:22;93075.09;;;8.04;100.00
11345;BME280;5727;42.600;23.028;2024-03-02T01:05:49;93068.19;;;7.88;100.00
11345;BME280;5727;42.600;23.028;2024-03-02T01:08:16;93067.44;;;7.99;100.00
11345;BME280;5727;42.600;23.028;2024-03-02T01:10:43;93067.78;;;7.98;100.00
11345;BME280;5727;42.600;23.028;2024-03-02T01:13:12;93067.69;;;8.06;100.00
11345;BME280;5727;42.600;23.028;2024-03-02T01:15:39;93071.47;;;8.09;100.00
11345;BME280;5727;42.600;23.028;2024-03-02T01:18:06;93066.94;;;8.18;100.00
11345;BME280;5727;42.600;23.028;2024-03-02T01:20:33;93063.28;;;8.31;100.00
11345;BME280;5727;42.600;23.028;2024-03-02T01:23:00;93058.72;;;8.40;100.00
11345;BME280;5727;42.600;23.028;2024-03-02T01:25:27;93058.72;;;8.52;100.00
11345;BME280;5727;42.600;23.028;2024-03-02T01:27:54;93055.97;;;8.61;100.00
11345;BME280;5727;42.600;23.028;2024-03-02T01:30:22;93051.94;;;8.63;100.00
11345;BME280;5727;42.600;23.028;2024-03-02T01:32:49;93051.31;;;8.66;100.00
11345;BME280;5727;42.600;23.028;2024-03-02T01:35:16;93054.13;;;8.73;100.00
11345;BME280;5727;42.600;23.028;2024-03-02T01:37:43;93046.72;;;8.63;100.00
11345;BME280;5727;42.600;23.028;2024-03-02T01:40:11;93047.59;;;8.67;100.00
11345;BME280;5727;42.600;23.028;2024-03-02T01:42:38;93044.13;;;8.63;100.00
11345;BME280;5727;42.600;23.028;2024-03-02T01:45:06;93047.41;;;8.36;100.00
11345;BME280;5727;42.600;23.028;2024-03-02T01:47:35;93051.38;;;8.09;100.00
11345;BME280;5727;42.600;23.028;2024-03-02T01:50:02;93055.72;;;8.05;100.00
11345;BME280;5727;42.600;23.028;2024-03-02T01:52:29;93054.09;;;8.01;100.00
11345;BME280;5727;42.600;23.028;2024-03-02T01:54:56;93047.78;;;8.02;100.00
11345;BME280;5727;42.600;23.028;2024-03-02T01:57:23;93041.06;;;8.01;100.00
11345;BME280;5727;42.600;23.028;2024-03-02T01:59:50;93032.56;;;7.92;100.00
11345;BME280;5727;42.600;23.028;2024-03-02T02:02:18;93039.06;;;7.86;100.00
11345;BME280;5727;42.600;23.028;2024-03-02T02:04:47;93037.13;;;7.83;100.00
11345;BME280;5727;42.600;23.028;2024-03-02T02:07:13;93036.38;;;7.94;100.00
11345;BME280;5727;42.600;23.028;2024-03-02T02:09:41;93035.72;;;8.09;100.00
11345;BME280;5727;42.600;23.028;2024-03-02T02:12:09;93034.53;;;8.19;100.00
11345;BME280;5727;42.600;23.028;2024-03-02T02:14:36;93044.13;;;8.03;100.00
11345;BME280;5727;42.600;23.028;2024-03-02T02:17:05;93042.13;;;7.88;100.00
11345;BME280;5727;42.600;23.028;2024-03-02T02:19:32;93038.41;;;7.77;100.00
11345;BME280;5727;42.600;23.028;2024-03-02T02:22:00;93033.00;;;7.82;100.00
11345;BME280;5727;42.600;23.028;2024-03-02T02:24:27;93032.75;;;7.75;100.00
11345;BME280;5727;42.600;23.028;2024-03-02T02:26:54;93032.75;;;7.75;100.00
11345;BME280;5727;42.600;23.028;2024-03-02T02:29:21;93027.28;;;7.56;100.00
11345;BME280;5727;42.600;23.028;2024-03-02T02:31:48;93027.72;;;7.58;100.00
11345;BME280;5727;42.600;23.028;2024-03-02T02:34:15;93025.34;;;7.65;100.00
11345;BME280;5727;42.600;23.028;2024-03-02T02:36:42;93033.19;;;7.77;100.00
11345;BME280;5727;42.600;23.028;2024-03-02T02:39:14;93030.03;;;7.71;100.00
11345;BME280;5727;42.600;23.028;2024-03-02T02:41:42;93040.97;;;7.65;100.00
11345;BME280;5727;42.600;23.028;2024-03-02T02:44:09;93031.75;;;7.67;100.00
11345;BME280;5727;42.600;23.028;2024-03-02T02:46:38;93033.31;;;7.80;100.00
11345;BME280;5727;42.600;23.028;2024-03-02T02:49:05;93046.44;;;7.84;100.00
11345;BME280;5727;42.600;23.028;2024-03-02T02:51:32;93041.78;;;7.77;100.00
11345;BME280;5727;42.600;23.028;2024-03-02T02:53:59;93039.06;;;7.74;100.00
11345;BME280;5727;42.600;23.028;2024-03-02T02:56:28;93039.28;;;7.81;100.00
11345;BME280;5727;42.600;23.028;2024-03-02T02:58:55;93041.56;;;7.82;100.00
11345;BME280;5727;42.600;23.028;2024-03-02T03:01:21;93033.41;;;7.84;100.00
11345;BME280;5727;42.600;23.028;2024-03-02T03:03:48;93037.22;;;7.86;100.00
11345;BME280;5727;42.600;23.028;2024-03-02T03:06:15;93039.06;;;7.86;100.00
11345;BME280;5727;42.600;23.028;2024-03-02T03:08:42;93035.03;;;7.76;100.00
11345;BME280;5727;42.600;23.028;2024-03-02T03:11:09;93034.19;;;7.84;100.00
11345;BME280;5727;42.600;23.028;2024-03-02T03:13:37;93032.00;;;7.86;100.00
11345;BME280;5727;42.600;23.028;2024-03-02T03:16:05;93039.22;;;7.89;100.00
11345;BME280;5727;42.600;23.028;2024-03-02T03:18:32;93041.38;;;7.99;100.00
11345;BME280;5727;42.600;23.028;2024-03-02T03:20:59;93031.94;;;7.95;100.00
11345;BME280;5727;42.600;23.028;2024-03-02T03:23:26;93026.50;;;8.00;100.00
11345;BME280;5727;42.600;23.028;2024-03-02T03:25:53;93038.44;;;8.13;100.00
11345;BME280;5727;42.600;23.028;2024-03-02T03:28:20;93038.50;;;8.25;100.00
11345;BME280;5727;42.600;23.028;2024-03-02T03:30:48;93040.22;;;8.33;100.00
11345;BME280;5727;42.600;23.028;2024-03-02T03:33:15;93035.22;;;8.40;100.00
11345;BME280;5727;42.600;23.028;2024-03-02T03:35:42;93035.97;;;8.41;100.00
11345;BME280;5727;42.600;23.028;2024-03-02T03:38:09;93036.41;;;8.43;100.00
11345;BME280;5727;42.600;23.028;2024-03-02T03:40:35;93041.31;;;8.44;100.00
11345;BME280;5727;42.600;23.028;2024-03-02T03:43:03;93037.38;;;8.50;100.00
11345;BME280;5727;42.600;23.028;2024-03-02T03:45:29;93031.50;;;8.53;100.00
11345;BME280;5727;42.600;23.028;2024-03-02T03:47:58;93036.09;;;8.56;100.00
11345;BME280;5727;42.600;23.028;2024-03-02T03:50:25;93033.47;;;8.56;100.00
11345;BME280;5727;42.600;23.028;2024-03-02T03:52:52;93034.09;;;8.53;100.00
11345;BME280;5727;42.600;23.028;2024-03-02T03:55:19;93035.31;;;8.56;100.00
11345;BME280;5727;42.600;23.028;2024-03-02T03:57:45;93031.94;;;8.55;100.00
11345;BME280;5727;42.600;23.028;2024-03-02T04:00:13;93036.41;;;8.55;100.00
11345;BME280;5727;42.600;23.028;2024-03-02T04:02:41;93037.16;;;8.55;100.00
11345;BME280;5727;42.600;23.028;2024-03-02T04:05:09;93045.66;;;8.52;100.00
11345;BME280;5727;42.600;23.028;2024-03-02T04:07:36;93040.53;;;8.56;100.00
11345;BME280;5727;42.600;23.028;2024-03-02T04:10:07;93042.47;;;8.59;100.00
11345;BME280;5727;42.600;23.028;2024-03-02T04:12:35;93035.84;;;8.61;100.00
11345;BME280;5727;42.600;23.028;2024-03-02T04:15:04;93036.75;;;8.41;100.00
11345;BME280;5727;42.600;23.028;2024-03-02T04:17:32;93041.31;;;8.32;100.00
11345;BME280;5727;42.600;23.028;2024-03-02T04:20:01;93031.97;;;8.31;100.00
11345;BME280;5727;42.600;23.028;2024-03-02T04:22:33;93041.94;;;8.17;100.00
11345;BME280;5727;42.600;23.028;2024-03-02T04:25:00;93041.81;;;8.13;100.00
11345;BME280;5727;42.600;23.028;2024-03-02T04:27:30;93042.59;;;8.14;100.00
11345;BME280;5727;42.600;23.028;2024-03-02T04:29:57;93043.69;;;8.01;100.00
11345;BME280;5727;42.600;23.028;2024-03-02T04:32:25;93049.09;;;7.96;100.00
11345;BME280;5727;42.600;23.028;2024-03-02T04:34:52;93044.19;;;7.94;100.00
11345;BME280;5727;42.600;23.028;2024-03-02T04:37:20;93038.66;;;8.08;100.00
11345;BME280;5727;42.600;23.028;2024-03-02T04:39:48;93040.63;;;7.99;100.00
11345;BME280;5727;42.600;23.028;2024-03-02T04:42:15;93045.06;;;7.86;100.00
11345;BME280;5727;42.600;23.028;2024-03-02T04:44:42;93043.63;;;7.77;100.00
11345;BME280;5727;42.600;23.028;2024-03-02T04:47:09;93050.91;;;7.71;100.00
11345;BME280;5727;42.600;23.028;2024-03-02T04:49:36;93044.03;;;7.67;100.00
11345;BME280;5727;42.600;23.028;2024-03-02T04:52:03;93051.28;;;7.61;100.00
11345;BME280;5727;42.600;23.028;2024-03-02T04:54:30;93048.50;;;7.66;100.00
11345;BME280;5727;42.600;23.028;2024-03-02T04:56:59;93052.00;;;7.82;100.00
11345;BME280;5727;42.600;23.028;2024-03-02T04:59:26;93049.09;;;7.96;100.00
11345;BME280;5727;42.600;23.028;2024-03-02T05:01:53;93049.88;;;8.08;100.00
11345;BME280;5727;42.600;23.028;2024-03-02T05:04:20;93049.31;;;8.15;100.00
11345;BME280;5727;42.600;23.028;2024-03-02T05:06:47;93054.78;;;8.22;100.00
11345;BME280;5727;42.600;23.028;2024-03-02T05:09:18;93057.19;;;8.27;100.00
11345;BME280;5727;42.600;23.028;2024-03-02T05:11:45;93058.94;;;8.35;100.00
11345;BME280;5727;42.600;23.028;2024-03-02T05:14:50;93053.16;;;8.42;100.00
11345;BME280;5727;42.600;23.028;2024-03-02T05:17:17;93054.59;;;8.39;100.00
11345;BME280;5727;42.600;23.028;2024-03-02T05:19:43;93056.22;;;8.32;100.00
11345;BME280;5727;42.600;23.028;2024-03-02T05:22:10;93055.66;;;8.26;100.00
11345;BME280;5727;42.600;23.028;2024-03-02T05:24:37;93058.50;;;8.33;100.00
11345;BME280;5727;42.600;23.028;2024-03-02T05:27:04;93062.50;;;8.30;100.00
11345;BME280;5727;42.600;23.028;2024-03-02T05:29:32;93064.06;;;8.32;100.00
11345;BME280;5727;42.600;23.028;2024-03-02T05:32:01;93064.25;;;8.26;100.00
11345;BME280;5727;42.600;23.028;2024-03-02T05:34:28;93063.19;;;8.27;100.00
11345;BME280;5727;42.600;23.028;2024-03-02T05:36:56;93070.78;;;8.32;100.00
11345;BME280;5727;42.600;23.028;2024-03-02T05:39:23;93072.84;;;8.39;100.00
11345;BME280;5727;42.600;23.028;2024-03-02T05:41:50;93067.84;;;8.46;100.00
11345;BME280;5727;42.600;23.028;2024-03-02T05:44:17;93064.16;;;8.47;100.00
11345;BME280;5727;42.600;23.028;2024-03-02T05:46:45;93065.13;;;8.43;100.00
11345;BME280;5727;42.600;23.028;2024-03-02T05:49:14;93065.75;;;8.40;100.00
11345;BME280;5727;42.600;23.028;2024-03-02T05:51:40;93068.06;;;8.41;100.00
11345;BME280;5727;42.600;23.028;2024-03-02T05:54:08;93073.94;;;8.50;100.00
11345;BME280;5727;42.600;23.028;2024-03-02T05:56:35;93081.88;;;8.54;100.00
11345;BME280;5727;42.600;23.028;2024-03-02T05:59:02;93081.88;;;8.54;100.00
11345;BME280;5727;42.600;23.028;2024-03-02T06:01:38;93077.19;;;8.59;100.00
11345;BME280;5727;42.600;23.028;2024-03-02T06:04:05;93081.97;;;8.57;100.00
11345;BME280;5727;42.600;23.028;2024-03-02T06:06:33;93087.63;;;8.59;100.00
11345;BME280;5727;42.600;23.028;2024-03-02T06:09:00;93088.94;;;8.65;100.00
11345;BME280;5727;42.600;23.028;2024-03-02T06:11:28;93083.19;;;8.60;100.00
11345;BME280;5727;42.600;23.028;2024-03-02T06:13:55;93090.34;;;8.63;100.00
11345;BME280;5727;42.600;23.028;2024-03-02T06:16:22;93082.94;;;8.65;100.00
11345;BME280;5727;42.600;23.028;2024-03-02T06:18:49;93080.13;;;8.70;100.00
11345;BME280;5727;42.600;23.028;2024-03-02T06:21:16;93082.75;;;8.70;100.00
11345;BME280;5727;42.600;23.028;2024-03-02T06:23:45;93076.75;;;8.69;100.00
11345;BME280;5727;42.600;23.028;2024-03-02T06:26:12;93082.84;;;8.73;100.00
11345;BME280;5727;42.600;23.028;2024-03-02T06:28:39;93090.09;;;8.80;100.00
11345;BME280;5727;42.600;23.028;2024-03-02T06:31:06;93078.34;;;8.86;100.00
11345;BME280;5727;42.600;23.028;2024-03-02T06:33:33;93078.25;;;8.82;100.00
11345;BME280;5727;42.600;23.028;2024-03-02T06:36:00;93079.47;;;8.73;100.00
11345;BME280;5727;42.600;23.028;2024-03-02T06:38:27;93086.31;;;8.77;100.00
11345;BME280;5727;42.600;23.028;2024-03-02T06:40:56;93094.03;;;8.86;100.00
11345;BME280;5727;42.600;23.028;2024-03-02T06:43:23;93097.59;;;8.93;100.00
11345;BME280;5727;42.600;23.028;2024-03-02T06:45:50;93090.19;;;9.07;100.00
11345;BME280;5727;42.600;23.028;2024-03-02T06:48:17;93089.28;;;9.15;100.00
11345;BME280;5727;42.600;23.028;2024-03-02T06:50:45;93098.19;;;9.27;100.00
11345;BME280;5727;42.600;23.028;2024-03-02T06:53:13;93106.00;;;9.39;100.00
11345;BME280;5727;42.600;23.028;2024-03-02T06:55:43;93093.53;;;9.48;100.00
11345;BME280;5727;42.600;23.028;2024-03-02T06:58:11;93100.50;;;9.56;100.00
11345;BME280;5727;42.600;23.028;2024-03-02T07:00:38;93096.63;;;9.65;100.00
11345;BME280;5727;42.600;23.028;2024-03-02T07:03:05;93099.53;;;9.76;100.00
11345;BME280;5727;42.600;23.028;2024-03-02T07:05:32;93100.81;;;9.82;100.00
11345;BME280;5727;42.600;23.028;2024-03-02T07:07:59;93100.31;;;9.92;100.00
11345;BME280;5727;42.600;23.028;2024-03-02T07:10:27;93085.06;;;9.94;100.00
11345;BME280;5727;42.600;23.028;2024-03-02T07:12:54;93096.75;;;10.12;100.00
11345;BME280;5727;42.600;23.028;2024-03-02T07:15:22;93100.13;;;10.28;100.00
11345;BME280;5727;42.600;23.028;2024-03-02T07:18:08;93103.19;;;10.30;100.00
11345;BME280;5727;42.600;23.028;2024-03-02T07:20:35;93100.06;;;10.40;100.00
11345;BME280;5727;42.600;23.028;2024-03-02T07:23:04;93104.78;;;10.50;100.00
11345;BME280;5727;42.600;23.028;2024-03-02T07:25:32;93116.78;;;10.51;100.00
11345;BME280;5727;42.600;23.028;2024-03-02T07:27:59;93112.38;;;10.40;100.00
11345;BME280;5727;42.600;23.028;2024-03-02T07:30:27;93108.59;;;10.37;100.00
11345;BME280;5727;42.600;23.028;2024-03-02T07:32:54;93121.28;;;10.35;100.00
11345;BME280;5727;42.600;23.028;2024-03-02T07:35:21;93119.13;;;10.09;100.00
11345;BME280;5727;42.600;23.028;2024-03-02T07:37:52;93121.59;;;9.90;100.00
11345;BME280;5727;42.600;23.028;2024-03-02T07:40:19;93123.31;;;9.71;100.00
11345;BME280;5727;42.600;23.028;2024-03-02T07:42:46;93127.69;;;9.67;100.00
11345;BME280;5727;42.600;23.028;2024-03-02T07:45:13;93134.06;;;9.54;100.00
11345;BME280;5727;42.600;23.028;2024-03-02T07:47:42;93130.81;;;9.45;100.00
11345;BME280;5727;42.600;23.028;2024-03-02T07:50:09;93126.53;;;9.52;100.00
11345;BME280;5727;42.600;23.028;2024-03-02T07:52:36;93124.72;;;9.68;100.00
11345;BME280;5727;42.600;23.028;2024-03-02T07:55:03;93129.41;;;9.75;100.00
11345;BME280;5727;42.600;23.028;2024-03-02T07:57:31;93133.69;;;9.67;100.00
11345;BME280;5727;42.600;23.028;2024-03-02T07:59:58;93132.44;;;9.49;100.00
11345;BME280;5727;42.600;23.028;2024-03-02T08:02:25;93134.13;;;9.30;100.00
11345;BME280;5727;42.600;23.028;2024-03-02T08:04:53;93135.44;;;9.23;100.00
11345;BME280;5727;42.600;23.028;2024-03-02T08:07:20;93141.56;;;9.15;100.00
11345;BME280;5727;42.600;23.028;2024-03-02T08:09:47;93145.94;;;8.99;100.00
11345;BME280;5727;42.600;23.028;2024-03-02T08:12:14;93135.94;;;8.77;100.00
11345;BME280;5727;42.600;23.028;2024-03-02T08:14:41;93141.50;;;8.76;100.00
11345;BME280;5727;42.600;23.028;2024-03-02T08:17:08;93145.41;;;8.70;100.00
11345;BME280;5727;42.600;23.028;2024-03-02T08:19:37;93141.81;;;8.86;100.00
11345;BME280;5727;42.600;23.028;2024-03-02T08:22:06;93145.22;;;9.27;100.00
11345;BME280;5727;42.600;23.028;2024-03-02T08:24:33;93143.47;;;9.43;100.00
11345;BME280;5727;42.600;23.028;2024-03-02T08:27:00;93146.06;;;9.43;100.00
11345;BME280;5727;42.600;23.028;2024-03-02T08:29:27;93142.69;;;9.42;100.00
11345;BME280;5727;42.600;23.028;2024-03-02T08:31:54;93146.41;;;9.41;100.00
11345;BME280;5727;42.600;23.028;2024-03-02T08:34:21;93148.88;;;9.50;100.00
11345;BME280;5727;42.600;23.028;2024-03-02T08:36:48;93156.09;;;9.41;100.00
11345;BME280;5727;42.600;23.028;2024-03-02T08:39:17;93154.28;;;9.29;100.00
11345;BME280;5727;42.600;23.028;2024-03-02T08:41:45;93150.28;;;9.07;100.00
11345;BME280;5727;42.600;23.028;2024-03-02T08:44:13;93142.44;;;9.07;100.00
11345;BME280;5727;42.600;23.028;2024-03-02T08:46:40;93155.06;;;9.05;100.00
11345;BME280;5727;42.600;23.028;2024-03-02T08:49:07;93147.31;;;9.09;100.00
11345;BME280;5727;42.600;23.028;2024-03-02T08:51:34;93153.50;;;9.41;100.00
11345;BME280;5727;42.600;23.028;2024-03-02T08:54:01;93151.56;;;9.65;100.00
11345;BME280;5727;42.600;23.028;2024-03-02T08:56:31;93148.91;;;9.77;100.00
11345;BME280;5727;42.600;23.028;2024-03-02T08:58:58;93148.03;;;10.01;100.00
11345;BME280;5727;42.600;23.028;2024-03-02T09:01:25;93159.78;;;10.35;100.00
11345;BME280;5727;42.600;23.028;2024-03-02T09:03:52;93154.06;;;10.60;100.00
11345;BME280;5727;42.600;23.028;2024-03-02T09:06:19;93160.31;;;10.71;100.00
11345;BME280;5727;42.600;23.028;2024-03-02T09:08:46;93159.78;;;10.81;100.00
11345;BME280;5727;42.600;23.028;2024-03-02T09:11:15;93165.28;;;10.76;100.00
11345;BME280;5727;42.600;23.028;2024-03-02T09:13:44;93167.41;;;10.71;100.00
11345;BME280;5727;42.600;23.028;2024-03-02T09:16:10;93166.69;;;10.74;100.00
11345;BME280;5727;42.600;23.028;2024-03-02T09:18:37;93171.34;;;10.80;100.00
11345;BME280;5727;42.600;23.028;2024-03-02T09:21:04;93171.03;;;10.82;100.00
11345;BME280;5727;42.600;23.028;2024-03-02T09:23:32;93178.53;;;10.83;100.00
11345;BME280;5727;42.600;23.028;2024-03-02T09:25:59;93174.91;;;10.88;100.00
11345;BME280;5727;42.600;23.028;2024-03-02T09:28:26;93177.59;;;10.91;100.00
11345;BME280;5727;42.600;23.028;2024-03-02T09:30:54;93186.00;;;10.81;100.00
11345;BME280;5727;42.600;23.028;2024-03-02T09:33:21;93188.69;;;10.69;100.00
11345;BME280;5727;42.600;23.028;2024-03-02T09:35:48;93182.41;;;10.27;100.00
11345;BME280;5727;42.600;23.028;2024-03-02T09:38:15;93188.78;;;10.14;100.00
11345;BME280;5727;42.600;23.028;2024-03-02T09:40:42;93180.19;;;10.01;100.00
11345;BME280;5727;42.600;23.028;2024-03-02T09:43:10;93183.50;;;9.98;100.00
11345;BME280;5727;42.600;23.028;2024-03-02T09:45:37;93175.94;;;9.81;100.00
11345;BME280;5727;42.600;23.028;2024-03-02T09:48:07;93172.59;;;9.96;100.00
11345;BME280;5727;42.600;23.028;2024-03-02T09:50:34;93176.34;;;9.83;100.00
11345;BME280;5727;42.600;23.028;2024-03-02T09:53:01;93182.66;;;9.82;100.00
11345;BME280;5727;42.600;23.028;2024-03-02T09:55:28;93184.09;;;9.80;100.00
11345;BME280;5727;42.600;23.028;2024-03-02T09:57:55;93176.03;;;9.85;100.00
11345;BME280;5727;42.600;23.028;2024-03-02T10:00:22;93176.78;;;9.85;100.00
11345;BME280;5727;42.600;23.028;2024-03-02T10:02:50;93176.66;;;9.82;100.00
11345;BME280;5727;42.600;23.028;2024-03-02T10:05:25;93178.28;;;9.86;100.00
11345;BME280;5727;42.600;23.028;2024-03-02T10:08:00;93172.25;;;9.70;100.00
11345;BME280;5727;42.600;23.028;2024-03-02T10:10:35;93179.53;;;9.77;100.00
11345;BME280;5727;42.600;23.028;2024-03-02T10:13:05;93176.47;;;9.75;100.00
11345;BME280;5727;42.600;23.028;2024-03-02T10:15:33;93177.69;;;9.77;100.00
11345;BME280;5727;42.600;23.028;2024-03-02T10:18:00;93180.38;;;9.81;100.00
11345;BME280;5727;42.600;23.028;2024-03-02T10:20:28;93178.28;;;9.86;100.00
11345;BME280;5727;42.600;23.028;2024-03-02T10:22:55;93174.69;;;9.91;100.00
11345;BME280;5727;42.600;23.028;2024-03-02T10:25:29;93173.53;;;10.04;100.00
11345;BME280;5727;42.600;23.028;2024-03-02T10:27:57;93169.81;;;10.05;100.00
11345;BME280;5727;42.600;23.028;2024-03-02T10:30:25;93169.22;;;9.96;100.00
11345;BME280;5727;42.600;23.028;2024-03-02T10:32:53;93175.34;;;9.88;100.00
11345;BME280;5727;42.600;23.028;2024-03-02T10:35:21;93172.78;;;9.76;100.00
11345;BME280;5727;42.600;23.028;2024-03-02T10:37:50;93170.03;;;9.84;100.00
11345;BME280;5727;42.600;23.028;2024-03-02T10:40:18;93173.75;;;9.83;100.00
11345;BME280;5727;42.600;23.028;2024-03-02T10:42:48;93166.41;;;9.89;100.00
11345;BME280;5727;42.600;23.028;2024-03-02T10:45:16;93166.13;;;9.78;100.00
11345;BME280;5727;42.600;23.028;2024-03-02T10:47:44;93167.06;;;9.86;100.00
11345;BME280;5727;42.600;23.028;2024-03-02T10:50:13;93160.66;;;10.11;100.00
11345;BME280;5727;42.600;23.028;2024-03-02T10:52:40;93151.19;;;10.65;100.00
11345;BME280;5727;42.600;23.028;2024-03-02T10:55:09;93156.75;;;11.30;100.00
11345;BME280;5727;42.600;23.028;2024-03-02T10:57:42;93153.72;;;11.81;100.00
11345;BME280;5727;42.600;23.028;2024-03-02T11:00:12;93156.66;;;12.18;100.00
11345;BME280;5727;42.600;23.028;2024-03-02T11:02:48;93154.81;;;12.41;100.00
11345;BME280;5727;42.600;23.028;2024-03-02T11:05:25;93156.72;;;12.63;100.00
11345;BME280;5727;42.600;23.028;2024-03-02T11:07:53;93163.72;;;12.78;100.00
11345;BME280;5727;42.600;23.028;2024-03-02T11:10:25;93155.66;;;12.91;100.00
11345;BME280;5727;42.600;23.028;2024-03-02T11:12:56;93157.94;;;13.18;100.00
11345;BME280;5727;42.600;23.028;2024-03-02T11:15:27;93159.41;;;13.42;100.00
11345;BME280;5727;42.600;23.028;2024-03-02T11:17:55;93158.19;;;13.62;100.00
11345;BME280;5727;42.600;23.028;2024-03-02T11:20:23;93158.09;;;13.85;100.00
11345;BME280;5727;42.600;23.028;2024-03-02T11:22:50;93154.63;;;13.77;100.00
11345;BME280;5727;42.600;23.028;2024-03-02T11:25:26;93157.88;;;13.67;100.00
11345;BME280;5727;42.600;23.028;2024-03-02T11:28:03;93157.41;;;13.32;100.00
11345;BME280;5727;42.600;23.028;2024-03-02T11:30:49;93154.88;;;13.39;100.00
11345;BME280;5727;42.600;23.028;2024-03-02T11:33:23;93147.56;;;13.55;100.00
11345;BME280;5727;42.600;23.028;2024-03-02T11:35:53;93153.63;;;13.59;100.00
11345;BME280;5727;42.600;23.028;2024-03-02T11:38:20;93144.84;;;13.48;100.00
11345;BME280;5727;42.600;23.028;2024-03-02T11:40:49;93147.44;;;13.44;100.00
11345;BME280;5727;42.600;23.028;2024-03-02T11:43:16;93148.44;;;13.36;100.00
11345;BME280;5727;42.600;23.028;2024-03-02T11:45:43;93150.31;;;13.36;100.00
11345;BME280;5727;42.600;23.028;2024-03-02T11:48:11;93146.63;;;13.14;100.00
11345;BME280;5727;42.600;23.028;2024-03-02T11:50:41;93141.28;;;12.84;100.00
11345;BME280;5727;42.600;23.028;2024-03-02T11:53:10;93140.16;;;12.85;100.00
11345;BME280;5727;42.600;23.028;2024-03-02T11:55:39;93145.00;;;12.83;100.00
11345;BME280;5727;42.600;23.028;2024-03-02T11:58:07;93130.31;;;12.79;100.00
11345;BME280;5727;42.600;23.028;2024-03-02T12:00:34;93135.53;;;13.02;100.00
11345;BME280;5727;42.600;23.028;2024-03-02T12:03:03;93132.78;;;13.17;100.00
11345;BME280;5727;42.600;23.028;2024-03-02T12:05:31;93136.66;;;13.27;100.00
11345;BME280;5727;42.600;23.028;2024-03-02T12:07:59;93139.34;;;13.30;100.00
11345;BME280;5727;42.600;23.028;2024-03-02T12:10:28;93142.03;;;13.08;100.00
11345;BME280;5727;42.600;23.028;2024-03-02T12:12:56;93138.16;;;13.28;100.00
11345;BME280;5727;42.600;23.028;2024-03-02T12:15:25;93138.13;;;13.24;100.00
11345;BME280;5727;42.600;23.028;2024-03-02T12:17:54;93138.72;;;13.14;100.00
11345;BME280;5727;42.600;23.028;2024-03-02T12:20:21;93146.28;;;12.93;100.00
11345;BME280;5727;42.600;23.028;2024-03-02T12:22:50;93141.47;;;12.99;100.00
11345;BME280;5727;42.600;23.028;2024-03-02T12:25:18;93139.34;;;13.04;100.00
11345;BME280;5727;42.600;23.028;2024-03-02T12:27:45;93139.00;;;13.06;100.00
11345;BME280;5727;42.600;23.028;2024-03-02T12:30:13;93133.38;;;13.07;100.00
11345;BME280;5727;42.600;23.028;2024-03-02T12:32:42;93136.78;;;13.08;100.00
11345;BME280;5727;42.600;23.028;2024-03-02T12:35:10;93143.53;;;13.09;100.00
11345;BME280;5727;42.600;23.028;2024-03-02T12:37:44;93132.50;;;13.00;100.00
11345;BME280;5727;42.600;23.028;2024-03-02T12:40:11;93134.84;;;13.05;100.00
11345;BME280;5727;42.600;23.028;2024-03-02T12:42:39;93138.63;;;13.07;100.00
11345;BME280;5727;42.600;23.028;2024-03-02T12:45:07;93136.94;;;12.96;100.00
11345;BME280;5727;42.600;23.028;2024-03-02T12:47:34;93142.28;;;13.03;100.00
11345;BME280;5727;42.600;23.028;2024-03-02T12:50:04;93147.00;;;12.90;100.00
11345;BME280;5727;42.600;23.028;2024-03-02T12:52:32;93143.00;;;13.00;100.00
11345;BME280;5727;42.600;23.028;2024-03-02T12:54:59;93149.56;;;13.09;100.00
11345;BME280;5727;42.600;23.028;2024-03-02T12:57:29;93141.53;;;13.25;100.00
11345;BME280;5727;42.600;23.028;2024-03-02T12:59:59;93145.06;;;13.36;100.00
11345;BME280;5727;42.600;23.028;2024-03-02T13:02:28;93142.97;;;13.48;100.00